createdAt,value
2023-03-20T00:02:06.890Z,1.07
2023-03-20T00:04:34.262Z,1.32
2023-03-20T00:07:00.933Z,1.02
2023-03-20T00:09:28.438Z,0.93
2023-03-20T00:11:56.050Z,1.03
2023-03-20T00:14:25.206Z,1.34
2023-03-20T00:16:52.322Z,1.32
2023-03-20T00:19:23.283Z,1.23
2023-03-20T00:21:51.736Z,1.04
2023-03-20T00:24:18.559Z,1.19
2023-03-20T00:26:46.709Z,1.35
2023-03-20T00:29:21.767Z,1.22
2023-03-20T00:31:49.038Z,1.35
2023-03-20T00:34:19.508Z,1.24
2023-03-20T00:36:46.518Z,1.21
2023-03-20T00:39:13.220Z,1.03
2023-03-20T00:41:39.786Z,1.27
2023-03-20T00:44:21.832Z,1.20
2023-03-20T00:47:00.640Z,1.16
2023-03-20T00:49:35.432Z,1.27
2023-03-20T00:52:04.460Z,1.25
2023-03-20T00:54:32.095Z,1.38
2023-03-20T00:57:08.018Z,1.41
2023-03-20T00:59:38.403Z,1.37
2023-03-20T01:02:05.212Z,1.23
2023-03-20T01:04:40.364Z,1.03
2023-03-20T01:07:10.748Z,1.38
2023-03-20T01:09:37.428Z,1.33
2023-03-20T01:12:05.557Z,1.29
2023-03-20T01:14:32.188Z,1.14
2023-03-20T01:16:58.803Z,1.26
2023-03-20T01:19:25.461Z,1.06
2023-03-20T01:21:52.110Z,1.27
2023-03-20T01:24:18.765Z,1.04
2023-03-20T01:26:46.617Z,1.20
2023-03-20T01:29:20.662Z,1.39
2023-03-20T01:31:48.335Z,1.39
2023-03-20T01:34:16.656Z,1.34
2023-03-20T01:36:51.611Z,1.32
2023-03-20T01:39:21.748Z,1.21
2023-03-20T01:41:49.484Z,1.20
2023-03-20T01:44:24.235Z,1.32
2023-03-20T01:46:53.833Z,1.24
2023-03-20T01:49:20.694Z,1.34
2023-03-20T01:51:52.258Z,1.34
2023-03-20T01:54:27.008Z,1.19
2023-03-20T01:57:23.075Z,1.32
2023-03-20T02:00:15.697Z,1.17
2023-03-20T02:02:45.743Z,1.00
2023-03-20T02:05:16.549Z,1.18
2023-03-20T02:07:48.938Z,1.05
2023-03-20T02:10:17.072Z,1.16
2023-03-20T02:12:44.520Z,1.00
2023-03-20T02:15:14.815Z,0.73
2023-03-20T02:17:42.737Z,0.83
2023-03-20T02:20:15.741Z,1.04
2023-03-20T02:23:16.416Z,0.99
2023-03-20T02:25:52.007Z,0.98
2023-03-20T02:28:44.158Z,0.96
2023-03-20T02:31:37.094Z,0.95
2023-03-20T02:34:21.986Z,0.96
2023-03-20T02:37:00.746Z,0.89
2023-03-20T02:39:58.239Z,0.88
2023-03-20T02:42:39.247Z,0.91
2023-03-20T02:45:22.808Z,0.91
2023-03-20T02:47:59.734Z,0.82
2023-03-20T02:50:55.601Z,0.75
2023-03-20T02:53:51.526Z,0.69
2023-03-20T02:56:37.632Z,0.64
2023-03-20T02:59:27.122Z,0.68
2023-03-20T03:02:01.942Z,0.70
2023-03-20T03:04:35.753Z,0.54
2023-03-20T03:07:06.757Z,0.39
2023-03-20T03:09:43.174Z,0.34
2023-03-20T03:12:18.167Z,0.50
2023-03-20T03:14:52.946Z,0.43
2023-03-20T03:17:24.261Z,0.53
2023-03-20T03:19:54.496Z,0.60
2023-03-20T03:22:21.608Z,0.22
2023-03-20T03:24:51.161Z,0.40
2023-03-20T03:27:29.101Z,0.58
2023-03-20T03:29:59.366Z,0.54
2023-03-20T03:32:38.154Z,0.41
2023-03-20T03:35:07.081Z,0.55
2023-03-20T03:38:03.618Z,0.69
2023-03-20T03:40:39.161Z,0.70
2023-03-20T03:43:21.861Z,0.74
2023-03-20T03:45:55.108Z,0.69
2023-03-20T03:48:26.475Z,0.67
2023-03-20T03:51:02.078Z,0.46
2023-03-20T03:53:36.640Z,0.51
2023-03-20T03:56:07.120Z,0.70
2023-03-20T03:58:37.052Z,0.60
2023-03-20T04:01:07.797Z,0.59
2023-03-20T04:03:39.555Z,0.42
2023-03-20T04:06:10.143Z,0.63
2023-03-20T04:08:36.723Z,0.59
2023-03-20T04:11:03.565Z,0.33
2023-03-20T04:13:30.194Z,0.25
2023-03-20T04:15:57.452Z,0.26
2023-03-20T04:18:24.956Z,0.11
2023-03-20T04:20:52.518Z,0.26
2023-03-20T04:23:19.142Z,0.26
2023-03-20T04:25:45.765Z,0.25
2023-03-20T04:28:12.430Z,0.44
2023-03-20T04:30:39.226Z,0.23
2023-03-20T04:33:05.886Z,0.17
2023-03-20T04:35:32.460Z,0.43
2023-03-20T04:37:59.097Z,0.44
2023-03-20T04:40:26.099Z,0.35
2023-03-20T04:42:52.695Z,0.25
2023-03-20T04:45:20.543Z,0.29
2023-03-20T04:47:47.121Z,0.03
2023-03-20T04:50:14.290Z,0.18
2023-03-20T04:52:40.957Z,0.08
2023-03-20T04:55:08.083Z,0.14
2023-03-20T04:57:34.781Z,0.17
2023-03-20T05:00:01.433Z,0.26
2023-03-20T05:02:28.087Z,0.19
2023-03-20T05:04:54.793Z,0.04
2023-03-20T05:07:21.949Z,-0.26
2023-03-20T05:09:48.624Z,-0.11
2023-03-20T05:12:15.402Z,0.07
2023-03-20T05:14:41.979Z,0.21
2023-03-20T05:17:08.770Z,0.09
2023-03-20T05:19:35.672Z,0.15
2023-03-20T05:22:02.331Z,0.15
2023-03-20T05:24:29.248Z,0.18
2023-03-20T05:26:55.959Z,0.13
2023-03-20T05:29:23.057Z,0.20
2023-03-20T05:31:49.732Z,0.08
2023-03-20T05:34:16.394Z,0.27
2023-03-20T05:36:42.986Z,0.20
2023-03-20T05:39:09.635Z,-0.04
2023-03-20T05:41:36.615Z,0.11
2023-03-20T05:44:03.245Z,0.18
2023-03-20T05:46:29.923Z,0.48
2023-03-20T05:48:56.599Z,0.53
2023-03-20T05:51:23.304Z,0.51
2023-03-20T05:53:49.910Z,0.43
2023-03-20T05:56:16.616Z,0.68
2023-03-20T05:58:43.363Z,0.70
2023-03-20T06:01:10.055Z,0.73
2023-03-20T06:03:37.020Z,0.79
2023-03-20T06:06:04.716Z,0.98
2023-03-20T06:08:31.450Z,0.83
2023-03-20T06:10:58.026Z,0.83
2023-03-20T06:13:24.613Z,0.83
2023-03-20T06:15:51.359Z,0.79
2023-03-20T06:18:17.988Z,0.92
2023-03-20T06:20:44.641Z,1.04
2023-03-20T06:23:11.228Z,0.82
2023-03-20T06:25:38.813Z,0.96
2023-03-20T06:28:05.764Z,0.96
2023-03-20T06:30:32.367Z,1.08
2023-03-20T06:32:59.013Z,1.08
2023-03-20T06:35:25.692Z,1.20
2023-03-20T06:37:52.309Z,1.20
2023-03-20T06:40:19.101Z,1.40
2023-03-20T06:42:45.760Z,1.31
2023-03-20T06:45:12.442Z,1.21
2023-03-20T06:47:39.191Z,1.41
2023-03-20T06:50:06.395Z,1.59
2023-03-20T06:52:33.078Z,1.81
2023-03-20T06:54:59.718Z,1.72
2023-03-20T06:57:26.338Z,1.71
2023-03-20T06:59:53.747Z,1.99
2023-03-20T07:02:20.979Z,1.90
2023-03-20T07:04:47.608Z,2.06
2023-03-20T07:07:14.438Z,2.01
2023-03-20T07:09:41.059Z,2.24
2023-03-20T07:12:14.535Z,2.31
2023-03-20T07:14:45.323Z,2.31
2023-03-20T07:17:13.247Z,2.21
2023-03-20T07:19:39.949Z,2.51
2023-03-20T07:22:12.027Z,2.36
2023-03-20T07:24:38.655Z,2.58
2023-03-20T07:27:05.283Z,2.43
2023-03-20T07:29:31.883Z,2.57
2023-03-20T07:32:01.112Z,2.80
2023-03-20T07:34:27.774Z,2.81
2023-03-20T07:36:57.016Z,2.75
2023-03-20T07:39:24.016Z,2.82
2023-03-20T07:41:50.778Z,2.81
2023-03-20T07:44:19.373Z,2.90
2023-03-20T07:46:47.318Z,3.11
2023-03-20T07:49:18.592Z,3.20
2023-03-20T07:51:46.721Z,3.17
2023-03-20T07:54:13.864Z,3.30
2023-03-20T07:56:40.685Z,3.01
2023-03-20T07:59:07.669Z,3.55
2023-03-20T08:01:34.352Z,3.59
2023-03-20T08:04:01.138Z,3.73
2023-03-20T08:06:27.914Z,3.54
2023-03-20T08:08:54.924Z,3.38
2023-03-20T08:11:21.791Z,3.51
2023-03-20T08:13:48.372Z,3.59
2023-03-20T08:16:15.052Z,3.46
2023-03-20T08:18:42.615Z,3.57
2023-03-20T08:21:09.266Z,3.56
2023-03-20T08:23:35.964Z,4.01
2023-03-20T08:26:02.640Z,3.97
2023-03-20T08:28:46.238Z,3.89
2023-03-20T08:31:13.804Z,4.11
2023-03-20T08:33:40.674Z,4.27
2023-03-20T08:36:07.888Z,4.25
2023-03-20T08:38:34.685Z,4.63
2023-03-20T08:41:01.273Z,4.33
2023-03-20T08:43:27.899Z,4.21
2023-03-20T08:45:55.280Z,4.44
2023-03-20T08:48:22.057Z,4.22
2023-03-20T08:50:49.318Z,4.30
2023-03-20T08:53:16.165Z,4.74
2023-03-20T08:55:50.997Z,4.61
2023-03-20T08:58:18.954Z,4.77
2023-03-20T09:00:45.816Z,4.52
2023-03-20T09:03:17.652Z,4.82
2023-03-20T09:05:45.501Z,4.80
2023-03-20T09:08:12.477Z,5.11
2023-03-20T09:10:40.726Z,4.87
2023-03-20T09:13:25.770Z,4.79
2023-03-20T09:15:54.794Z,5.30
2023-03-20T09:18:22.210Z,5.12
2023-03-20T09:20:49.554Z,5.56
2023-03-20T09:23:16.260Z,5.59
2023-03-20T09:25:42.892Z,5.84
2023-03-20T09:28:09.585Z,5.99
2023-03-20T09:30:36.773Z,6.33
2023-03-20T09:33:03.668Z,6.16
2023-03-20T09:35:30.256Z,6.08
2023-03-20T09:37:56.896Z,5.96
2023-03-20T09:40:30.695Z,5.99
2023-03-20T09:43:16.137Z,5.71
2023-03-20T09:45:53.554Z,5.55
2023-03-20T09:48:46.564Z,5.57
2023-03-20T09:51:31.505Z,5.44
2023-03-20T09:54:05.961Z,5.69
2023-03-20T09:56:32.698Z,5.28
2023-03-20T09:59:03.413Z,6.08
2023-03-20T10:01:47.689Z,6.43
2023-03-20T10:04:14.769Z,6.38
2023-03-20T10:06:41.420Z,6.89
2023-03-20T10:09:21.197Z,6.66
2023-03-20T10:11:59.076Z,6.43
2023-03-20T10:14:49.888Z,6.40
2023-03-20T10:17:37.695Z,6.42
2023-03-20T10:20:31.349Z,5.94
2023-03-20T10:23:12.674Z,6.07
2023-03-20T10:26:12.917Z,6.15
2023-03-20T10:28:57.548Z,6.48
2023-03-20T10:31:42.441Z,6.85
2023-03-20T10:34:46.716Z,7.28
2023-03-20T10:37:32.526Z,7.20
2023-03-20T10:40:27.526Z,7.79
2023-03-20T10:42:59.187Z,6.97
2023-03-20T10:45:46.551Z,6.86
2023-03-20T10:48:21.157Z,7.64
2023-03-20T10:50:53.720Z,7.88
2023-03-20T10:53:40.910Z,8.11
2023-03-20T10:56:17.063Z,7.14
2023-03-20T10:58:48.373Z,7.69
2023-03-20T11:01:15.085Z,8.12
2023-03-20T11:03:42.741Z,6.66
2023-03-20T11:06:17.764Z,7.54
2023-03-20T11:08:52.282Z,8.16
2023-03-20T11:11:34.768Z,8.74
2023-03-20T11:14:16.151Z,9.10
2023-03-20T11:16:42.918Z,9.01
2023-03-20T11:19:11.988Z,9.39
2023-03-20T11:21:57.151Z,8.81
2023-03-20T11:24:34.139Z,8.32
2023-03-20T11:27:10.891Z,9.24
2023-03-20T11:29:39.114Z,9.13
2023-03-20T11:32:22.397Z,8.61
2023-03-20T11:34:49.780Z,9.37
2023-03-20T11:37:26.061Z,9.38
2023-03-20T11:40:07.861Z,9.57
2023-03-20T11:42:37.305Z,8.76
2023-03-20T11:45:07.552Z,9.03
2023-03-20T11:47:36.192Z,9.49
2023-03-20T11:50:06.569Z,9.74
2023-03-20T11:52:37.259Z,9.78
2023-03-20T11:55:08.631Z,8.91
2023-03-20T11:57:39.600Z,8.43
2023-03-20T12:00:12.781Z,8.22
2023-03-20T12:02:43.694Z,8.45
2023-03-20T12:05:34.109Z,9.05
2023-03-20T12:08:18.538Z,8.62
2023-03-20T12:10:52.886Z,8.40
2023-03-20T12:13:28.992Z,9.03
2023-03-20T12:16:01.653Z,8.92
2023-03-20T12:18:41.216Z,8.05
2023-03-20T12:21:36.161Z,7.88
2023-03-20T12:24:26.276Z,8.11
2023-03-20T12:27:05.083Z,7.99
2023-03-20T12:29:47.826Z,8.13
2023-03-20T12:32:23.598Z,7.89
2023-03-20T12:34:54.824Z,7.99
2023-03-20T12:37:22.662Z,7.82
2023-03-20T12:39:55.485Z,7.92
2023-03-20T12:42:22.447Z,7.66
2023-03-20T12:44:55.880Z,7.42
2023-03-20T12:47:53.393Z,7.33
2023-03-20T12:50:29.263Z,7.25
2023-03-20T12:53:16.065Z,7.26
2023-03-20T12:55:59.236Z,7.29
2023-03-20T12:58:41.883Z,6.81
2023-03-20T13:01:21.352Z,6.83
2023-03-20T13:04:06.359Z,7.08
2023-03-20T13:07:07.432Z,6.67
2023-03-20T13:10:15.814Z,6.65
2023-03-20T13:13:15.052Z,6.31
2023-03-20T13:15:47.697Z,6.43
2023-03-20T13:18:45.193Z,6.41
2023-03-20T13:21:19.544Z,6.29
2023-03-20T13:24:06.202Z,6.30
2023-03-20T13:26:32.872Z,6.27
2023-03-20T13:29:11.613Z,6.09
2023-03-20T13:32:13.866Z,5.65
2023-03-20T13:35:09.086Z,5.87
2023-03-20T13:37:41.918Z,5.81
2023-03-20T13:40:20.839Z,5.80
2023-03-20T13:42:47.418Z,5.94
2023-03-20T13:45:28.915Z,5.65
2023-03-20T13:48:01.176Z,5.40
2023-03-20T13:50:42.073Z,5.32
2023-03-20T13:53:24.449Z,5.76
2023-03-20T13:56:22.746Z,5.56
2023-03-20T13:59:03.106Z,5.64
2023-03-20T14:01:41.642Z,5.50
2023-03-20T14:04:17.952Z,5.41
2023-03-20T14:06:50.120Z,5.42
2023-03-20T14:09:35.027Z,5.25
2023-03-20T14:12:06.381Z,5.55
2023-03-20T14:14:42.129Z,5.26
2023-03-20T14:17:22.487Z,5.24
2023-03-20T14:19:50.898Z,5.24
2023-03-20T14:22:23.878Z,4.91
2023-03-20T14:25:00.777Z,4.86
2023-03-20T14:27:43.229Z,4.95
2023-03-20T14:30:39.146Z,4.80
2023-03-20T14:33:27.002Z,4.80
2023-03-20T14:36:20.840Z,4.62
2023-03-20T14:39:18.802Z,4.66
2023-03-20T14:42:05.950Z,4.41
2023-03-20T14:44:52.788Z,4.56
2023-03-20T14:47:47.185Z,4.49
2023-03-20T14:50:45.746Z,4.54
2023-03-20T14:53:20.152Z,4.46
2023-03-20T14:55:55.987Z,4.59
2023-03-20T14:58:43.823Z,4.58
2023-03-20T15:01:20.878Z,4.36
2023-03-20T15:04:28.993Z,4.15
2023-03-20T15:07:14.261Z,4.35
2023-03-20T15:09:44.285Z,4.23
2023-03-20T15:12:17.826Z,3.92
2023-03-20T15:14:48.825Z,3.94
2023-03-20T15:17:22.212Z,3.96
2023-03-20T15:19:52.164Z,3.82
2023-03-20T15:22:20.612Z,3.85
2023-03-20T15:24:57.131Z,3.86
2023-03-20T15:27:29.567Z,3.48
2023-03-20T15:29:57.750Z,3.52
2023-03-20T15:32:25.221Z,3.65
2023-03-20T15:34:52.283Z,3.63
2023-03-20T15:37:23.588Z,3.60
2023-03-20T15:39:55.503Z,3.43
2023-03-20T15:42:24.876Z,3.36
2023-03-20T15:44:53.801Z,3.27
2023-03-20T15:47:23.445Z,2.91
2023-03-20T15:49:58.591Z,2.81
2023-03-20T15:52:39.339Z,3.00
2023-03-20T15:55:17.427Z,2.57
2023-03-20T15:57:47.228Z,2.71
2023-03-20T16:00:23.756Z,2.78
2023-03-20T16:02:50.723Z,2.60
2023-03-20T16:05:18.858Z,2.68
2023-03-20T16:07:45.710Z,2.49
2023-03-20T16:10:18.108Z,2.43
2023-03-20T16:12:50.964Z,2.49
2023-03-20T16:15:19.466Z,2.42
2023-03-20T16:17:47.681Z,2.19
2023-03-20T16:20:16.819Z,2.13
2023-03-20T16:22:45.198Z,2.00
2023-03-20T16:25:18.602Z,2.12
2023-03-20T16:27:51.852Z,2.01
2023-03-20T16:30:24.705Z,1.60
2023-03-20T16:32:59.120Z,1.69
2023-03-20T16:35:45.433Z,1.67
2023-03-20T16:38:22.802Z,1.49
2023-03-20T16:40:54.190Z,1.43
2023-03-20T16:43:28.014Z,1.36
2023-03-20T16:45:57.052Z,1.33
2023-03-20T16:48:23.732Z,1.24
2023-03-20T16:51:00.344Z,0.61
2023-03-20T16:53:37.284Z,1.00
2023-03-20T16:56:05.481Z,0.77
2023-03-20T16:58:35.377Z,0.64
2023-03-20T17:01:05.674Z,0.62
2023-03-20T17:03:40.061Z,0.53
2023-03-20T17:06:27.490Z,0.48
2023-03-20T17:09:14.056Z,0.25
2023-03-20T17:11:47.622Z,0.21
2023-03-20T17:14:14.366Z,-0.12
2023-03-20T17:16:41.904Z,-0.08
2023-03-20T17:19:15.383Z,-0.12
2023-03-20T17:21:42.856Z,-0.47
2023-03-20T17:24:10.998Z,-0.30
2023-03-20T17:26:39.886Z,-0.41
2023-03-20T17:29:06.856Z,-0.40
2023-03-20T17:31:33.620Z,-0.86
2023-03-20T17:34:00.373Z,-0.63
2023-03-20T17:36:30.302Z,-1.04
2023-03-20T17:38:58.287Z,-1.24
2023-03-20T17:41:25.637Z,-1.08
2023-03-20T17:43:52.645Z,-1.28
2023-03-20T17:46:21.105Z,-1.47
2023-03-20T17:48:49.105Z,-1.42
2023-03-20T17:51:16.031Z,-1.58
2023-03-20T17:53:43.690Z,-1.77
2023-03-20T17:56:12.831Z,-1.80
2023-03-20T17:58:40.008Z,-1.68
2023-03-20T18:01:09.156Z,-1.80
2023-03-20T18:03:36.447Z,-1.96
2023-03-20T18:06:04.086Z,-1.95
2023-03-20T18:08:30.963Z,-2.02
2023-03-20T18:10:57.993Z,-2.14
2023-03-20T18:13:26.463Z,-2.15
2023-03-20T18:15:56.845Z,-2.31
2023-03-20T18:18:24.275Z,-2.26
2023-03-20T18:20:52.318Z,-2.36
2023-03-20T18:23:19.012Z,-2.47
2023-03-20T18:25:45.714Z,-2.71
2023-03-20T18:28:23.088Z,-2.62
2023-03-20T18:30:50.815Z,-2.56
2023-03-20T18:33:17.673Z,-2.75
2023-03-20T18:35:44.916Z,-2.81
2023-03-20T18:38:14.705Z,-3.01
2023-03-20T18:40:43.823Z,-2.97
2023-03-20T18:51:14.144Z,-3.27
2023-03-20T18:53:41.643Z,-3.65
